sensor_id;sensor_type;location;lat;lon;timestamp;pressure;altitude;pressure_sealevel;temperature;humidity
66857;BME280;53766;50.280;19.160;2022-10-16T00:01:21;98643.84;;;17.63;59.08
66857;BME280;53766;50.280;19.160;2022-10-16T00:03:49;98655.31;;;17.63;58.96
66857;BME280;53766;50.280;19.160;2022-10-16T00:06:18;98649.97;;;17.63;59.01
66857;BME280;53766;50.280;19.160;2022-10-16T00:08:47;98649.97;;;17.63;59.03
66857;BME280;53766;50.280;19.160;2022-10-16T00:11:24;98649.16;;;17.63;58.90
66857;BME280;53766;50.280;19.160;2022-10-16T00:13:56;98652.00;;;17.61;58.87
66857;BME280;53766;50.280;19.160;2022-10-16T00:16:24;98652.00;;;17.61;58.87
66857;BME280;53766;50.280;19.160;2022-10-16T00:18:52;98652.00;;;17.61;58.91
66857;BME280;53766;50.280;19.160;2022-10-16T00:21:22;98649.34;;;17.61;58.90
66857;BME280;53766;50.280;19.160;2022-10-16T00:23:59;98653.03;;;17.60;58.81
66857;BME280;53766;50.280;19.160;2022-10-16T00:26:28;98650.38;;;17.60;58.90
66857;BME280;53766;50.280;19.160;2022-10-16T00:28:56;98650.38;;;17.60;58.70
66857;BME280;53766;50.280;19.160;2022-10-16T00:31:24;98647.53;;;17.62;58.68
66857;BME280;53766;50.280;19.160;2022-10-16T00:33:52;98650.38;;;17.60;58.79
66857;BME280;53766;50.280;19.160;2022-10-16T00:36:22;98656.53;;;17.61;58.72
66857;BME280;53766;50.280;19.160;2022-10-16T00:38:54;98648.72;;;17.59;58.77
66857;BME280;53766;50.280;19.160;2022-10-16T00:41:23;98645.06;;;17.60;58.49
66857;BME280;53766;50.280;19.160;2022-10-16T00:43:55;98655.69;;;17.60;58.60
66857;BME280;53766;50.280;19.160;2022-10-16T00:46:39;98648.72;;;17.59;58.47
66857;BME280;53766;50.280;19.160;2022-10-16T00:49:11;98654.88;;;17.60;58.62
66857;BME280;53766;50.280;19.160;2022-10-16T00:51:43;98651.38;;;17.59;58.71
66857;BME280;53766;50.280;19.160;2022-10-16T00:54:18;98654.88;;;17.60;58.58
66857;BME280;53766;50.280;19.160;2022-10-16T00:56:47;98653.22;;;17.59;58.54
66857;BME280;53766;50.280;19.160;2022-10-16T00:59:18;98654.03;;;17.59;58.52
66857;BME280;53766;50.280;19.160;2022-10-16T01:01:46;98649.75;;;17.58;58.55
66857;BME280;53766;50.280;19.160;2022-10-16T01:04:14;98663.06;;;17.58;58.47
66857;BME280;53766;50.280;19.160;2022-10-16T01:07:00;98664.69;;;17.59;58.57
66857;BME280;53766;50.280;19.160;2022-10-16T01:10:06;98660.41;;;17.58;58.56
66857;BME280;53766;50.280;19.160;2022-10-16T01:15:46;98671.06;;;17.58;58.42
66857;BME280;53766;50.280;19.160;2022-10-16T01:18:32;98679.03;;;17.58;58.50
66857;BME280;53766;50.280;19.160;2022-10-16T01:21:10;98672.09;;;17.57;58.33
66857;BME280;53766;50.280;19.160;2022-10-16T01:24:09;98672.09;;;17.57;58.42
66857;BME280;53766;50.280;19.160;2022-10-16T01:26:50;98668.38;;;17.58;58.39
66857;BME280;53766;50.280;19.160;2022-10-16T01:29:34;98666.75;;;17.57;58.32
66857;BME280;53766;50.280;19.160;2022-10-16T01:32:15;98666.75;;;17.57;58.32
66857;BME280;53766;50.280;19.160;2022-10-16T01:38:03;98665.09;;;17.56;58.33
66857;BME280;53766;50.280;19.160;2022-10-16T01:40:34;98657.91;;;17.57;58.18
66857;BME280;53766;50.280;19.160;2022-10-16T01:43:12;98665.09;;;17.56;58.14
66857;BME280;53766;50.280;19.160;2022-10-16T01:45:40;98663.47;;;17.55;58.11
66857;BME280;53766;50.280;19.160;2022-10-16T01:48:14;98658.94;;;17.56;58.29
66857;BME280;53766;50.280;19.160;2022-10-16T01:50:44;98662.63;;;17.55;58.09
66857;BME280;53766;50.280;19.160;2022-10-16T01:53:16;98665.09;;;17.56;58.03
66857;BME280;53766;50.280;19.160;2022-10-16T01:55:46;98664.28;;;17.56;58.22
66857;BME280;53766;50.280;19.160;2022-10-16T01:58:15;98664.28;;;17.56;58.18
66857;BME280;53766;50.280;19.160;2022-10-16T02:00:45;98666.94;;;17.56;58.09
66857;BME280;53766;50.280;19.160;2022-10-16T02:03:16;98672.25;;;17.56;58.18
66857;BME280;53766;50.280;19.160;2022-10-16T02:05:54;98671.44;;;17.55;58.03
66857;BME280;53766;50.280;19.160;2022-10-16T02:08:24;98676.78;;;17.55;58.09
66857;BME280;53766;50.280;19.160;2022-10-16T02:10:52;98675.75;;;17.56;58.09
66857;BME280;53766;50.280;19.160;2022-10-16T02:13:26;98681.88;;;17.57;58.09
66857;BME280;53766;50.280;19.160;2022-10-16T02:15:54;98683.72;;;17.56;57.87
66857;BME280;53766;50.280;19.160;2022-10-16T02:18:22;98689.06;;;17.56;58.07
66857;BME280;53766;50.280;19.160;2022-10-16T02:23:35;98693.38;;;17.57;57.82
66857;BME280;53766;50.280;19.160;2022-10-16T02:26:07;98695.19;;;17.57;57.95
66857;BME280;53766;50.280;19.160;2022-10-16T02:28:46;98697.06;;;17.56;58.08
66857;BME280;53766;50.280;19.160;2022-10-16T02:31:20;98703.19;;;17.57;58.13
66857;BME280;53766;50.280;19.160;2022-10-16T02:33:51;98697.88;;;17.57;57.97
66857;BME280;53766;50.280;19.160;2022-10-16T02:36:20;98694.56;;;17.55;57.94
66857;BME280;53766;50.280;19.160;2022-10-16T02:38:48;98696.22;;;17.56;57.95
66857;BME280;53766;50.280;19.160;2022-10-16T02:41:16;98690.91;;;17.56;58.00
66857;BME280;53766;50.280;19.160;2022-10-16T02:43:44;98689.06;;;17.56;57.88
66857;BME280;53766;50.280;19.160;2022-10-16T02:46:11;98684.75;;;17.55;58.01
66857;BME280;53766;50.280;19.160;2022-10-16T02:48:38;98684.75;;;17.55;58.11
66857;BME280;53766;50.280;19.160;2022-10-16T02:51:06;98686.41;;;17.56;58.09
66857;BME280;53766;50.280;19.160;2022-10-16T02:53:33;98684.75;;;17.55;57.93
66857;BME280;53766;50.280;19.160;2022-10-16T02:56:01;98687.44;;;17.55;57.88
66857;BME280;53766;50.280;19.160;2022-10-16T02:58:28;98686.41;;;17.56;58.08
66857;BME280;53766;50.280;19.160;2022-10-16T03:00:56;98690.09;;;17.55;57.93
66857;BME280;53766;50.280;19.160;2022-10-16T03:03:24;98695.41;;;17.55;57.85
66857;BME280;53766;50.280;19.160;2022-10-16T03:05:51;98699.06;;;17.54;58.01
66857;BME280;53766;50.280;19.160;2022-10-16T03:08:18;98699.06;;;17.54;57.98
66857;BME280;53766;50.280;19.160;2022-10-16T03:10:51;98701.75;;;17.54;57.84
66857;BME280;53766;50.280;19.160;2022-10-16T03:13:18;98710.56;;;17.55;57.86
66857;BME280;53766;50.280;19.160;2022-10-16T03:15:47;98713.22;;;17.55;57.84
66857;BME280;53766;50.280;19.160;2022-10-16T03:18:15;98714.25;;;17.54;57.87
66857;BME280;53766;50.280;19.160;2022-10-16T03:20:43;98715.06;;;17.54;57.96
66857;BME280;53766;50.280;19.160;2022-10-16T03:23:11;98714.25;;;17.54;57.88
66857;BME280;53766;50.280;19.160;2022-10-16T03:25:38;98720.38;;;17.54;57.83
66857;BME280;53766;50.280;19.160;2022-10-16T03:28:06;98715.06;;;17.54;57.94
66857;BME280;53766;50.280;19.160;2022-10-16T03:30:34;98715.06;;;17.54;57.83
66857;BME280;53766;50.280;19.160;2022-10-16T03:33:02;98715.88;;;17.55;57.87
66857;BME280;53766;50.280;19.160;2022-10-16T03:35:30;98716.09;;;17.53;57.96
66857;BME280;53766;50.280;19.160;2022-10-16T03:37:57;98720.38;;;17.54;57.84
66857;BME280;53766;50.280;19.160;2022-10-16T03:40:26;98717.72;;;17.54;57.87
66857;BME280;53766;50.280;19.160;2022-10-16T03:42:54;98719.56;;;17.54;57.87
66857;BME280;53766;50.280;19.160;2022-10-16T03:45:24;98719.56;;;17.54;57.75
66857;BME280;53766;50.280;19.160;2022-10-16T03:47:52;98726.75;;;17.53;57.86
66857;BME280;53766;50.280;19.160;2022-10-16T03:50:19;98722.41;;;17.52;57.68
66857;BME280;53766;50.280;19.160;2022-10-16T03:52:47;98726.75;;;17.53;57.82
66857;BME280;53766;50.280;19.160;2022-10-16T03:55:14;98734.72;;;17.53;57.72
66857;BME280;53766;50.280;19.160;2022-10-16T03:57:42;98726.75;;;17.53;57.68
66857;BME280;53766;50.280;19.160;2022-10-16T04:00:10;98733.06;;;17.52;57.79
66857;BME280;53766;50.280;19.160;2022-10-16T04:02:38;98731.22;;;17.53;57.66
66857;BME280;53766;50.280;19.160;2022-10-16T04:05:06;98725.88;;;17.53;57.60
66857;BME280;53766;50.280;19.160;2022-10-16T04:07:34;98733.88;;;17.53;57.77
66857;BME280;53766;50.280;19.160;2022-10-16T04:10:02;98735.72;;;17.52;57.68
66857;BME280;53766;50.280;19.160;2022-10-16T04:12:30;98732.25;;;17.52;57.77
66857;BME280;53766;50.280;19.160;2022-10-16T04:14:58;98732.25;;;17.52;57.69
66857;BME280;53766;50.280;19.160;2022-10-16T04:17:25;98742.91;;;17.52;57.68
66857;BME280;53766;50.280;19.160;2022-10-16T04:19:53;98736.75;;;17.51;57.64
66857;BME280;53766;50.280;19.160;2022-10-16T04:22:21;98738.38;;;17.52;57.63
66857;BME280;53766;50.280;19.160;2022-10-16T04:24:49;98738.38;;;17.52;57.60
66857;BME280;53766;50.280;19.160;2022-10-16T04:27:16;98736.75;;;17.51;57.63
66857;BME280;53766;50.280;19.160;2022-10-16T04:29:43;98736.75;;;17.51;57.69
66857;BME280;53766;50.280;19.160;2022-10-16T04:32:11;98731.44;;;17.51;57.64
66857;BME280;53766;50.280;19.160;2022-10-16T04:34:39;98731.44;;;17.51;57.70
66857;BME280;53766;50.280;19.160;2022-10-16T04:37:07;98729.75;;;17.50;57.71
66857;BME280;53766;50.280;19.160;2022-10-16T04:39:34;98729.75;;;17.50;57.71
66857;BME280;53766;50.280;19.160;2022-10-16T04:42:02;98729.75;;;17.50;57.60
66857;BME280;53766;50.280;19.160;2022-10-16T04:44:29;98722.81;;;17.49;57.47
66857;BME280;53766;50.280;19.160;2022-10-16T04:46:57;98722.81;;;17.49;57.61
66857;BME280;53766;50.280;19.160;2022-10-16T04:49:24;98735.91;;;17.51;57.58
66857;BME280;53766;50.280;19.160;2022-10-16T04:51:52;98740.41;;;17.50;57.51
66857;BME280;53766;50.280;19.160;2022-10-16T04:54:19;98735.09;;;17.50;57.63
66857;BME280;53766;50.280;19.160;2022-10-16T04:56:47;98740.41;;;17.50;57.52
66857;BME280;53766;50.280;19.160;2022-10-16T04:59:15;98736.94;;;17.50;57.52
66857;BME280;53766;50.280;19.160;2022-10-16T05:01:43;98738.78;;;17.49;57.41
66857;BME280;53766;50.280;19.160;2022-10-16T05:04:11;98741.44;;;17.49;57.63
66857;BME280;53766;50.280;19.160;2022-10-16T05:06:38;98736.94;;;17.50;57.61
66857;BME280;53766;50.280;19.160;2022-10-16T05:09:06;98744.94;;;17.50;57.62
66857;BME280;53766;50.280;19.160;2022-10-16T05:11:34;98756.41;;;17.50;57.58
66857;BME280;53766;50.280;19.160;2022-10-16T05:14:02;98754.75;;;17.49;57.48
66857;BME280;53766;50.280;19.160;2022-10-16T05:16:30;98745.75;;;17.50;57.59
66857;BME280;53766;50.280;19.160;2022-10-16T05:18:57;98744.94;;;17.50;57.58
66857;BME280;53766;50.280;19.160;2022-10-16T05:21:46;98752.09;;;17.49;57.53
66857;BME280;53766;50.280;19.160;2022-10-16T05:24:14;98759.06;;;17.50;57.53
66857;BME280;53766;50.280;19.160;2022-10-16T05:26:41;98765.41;;;17.49;57.45
66857;BME280;53766;50.280;19.160;2022-10-16T05:29:09;98769.72;;;17.50;57.40
66857;BME280;53766;50.280;19.160;2022-10-16T05:31:36;98769.91;;;17.48;57.47
66857;BME280;53766;50.280;19.160;2022-10-16T05:34:04;98772.38;;;17.50;57.47
66857;BME280;53766;50.280;19.160;2022-10-16T05:36:32;98781.38;;;17.49;57.59
66857;BME280;53766;50.280;19.160;2022-10-16T05:38:59;98782.22;;;17.50;57.48
66857;BME280;53766;50.280;19.160;2022-10-16T05:41:27;98782.22;;;17.50;57.34
66857;BME280;53766;50.280;19.160;2022-10-16T05:43:54;98797.38;;;17.49;57.56
66857;BME280;53766;50.280;19.160;2022-10-16T05:46:22;98792.03;;;17.49;57.47
66857;BME280;53766;50.280;19.160;2022-10-16T05:48:52;98794.69;;;17.49;57.45
66857;BME280;53766;50.280;19.160;2022-10-16T05:51:21;98786.72;;;17.49;57.38
66857;BME280;53766;50.280;19.160;2022-10-16T05:53:49;98802.69;;;17.49;57.43
66857;BME280;53766;50.280;19.160;2022-10-16T05:56:16;98805.34;;;17.49;57.28
66857;BME280;53766;50.280;19.160;2022-10-16T05:58:44;98805.34;;;17.49;57.28
66857;BME280;53766;50.280;19.160;2022-10-16T06:01:15;98812.53;;;17.48;57.41
66857;BME280;53766;50.280;19.160;2022-10-16T06:03:43;98808.00;;;17.49;57.27
66857;BME280;53766;50.280;19.160;2022-10-16T06:06:16;98808.00;;;17.49;57.48
66857;BME280;53766;50.280;19.160;2022-10-16T06:08:45;98827.28;;;17.51;57.37
66857;BME280;53766;50.280;19.160;2022-10-16T06:11:18;98821.13;;;17.51;57.61
66857;BME280;53766;50.280;19.160;2022-10-16T06:13:50;98827.28;;;17.51;57.47
66857;BME280;53766;50.280;19.160;2022-10-16T06:16:18;98837.94;;;17.51;57.42
66857;BME280;53766;50.280;19.160;2022-10-16T06:18:46;98833.44;;;17.52;57.28
66857;BME280;53766;50.280;19.160;2022-10-16T06:21:17;98837.94;;;17.51;57.30
66857;BME280;53766;50.280;19.160;2022-10-16T06:23:45;98834.25;;;17.52;57.36
66857;BME280;53766;50.280;19.160;2022-10-16T06:26:18;98845.72;;;17.53;57.41
66857;BME280;53766;50.280;19.160;2022-10-16T06:28:47;98852.72;;;17.54;57.42
66857;BME280;53766;50.280;19.160;2022-10-16T06:31:16;98845.53;;;17.54;57.35
66857;BME280;53766;50.280;19.160;2022-10-16T06:33:44;98854.34;;;17.55;57.48
66857;BME280;53766;50.280;19.160;2022-10-16T06:36:15;98856.84;;;17.56;57.19
66857;BME280;53766;50.280;19.160;2022-10-16T06:38:43;98854.34;;;17.55;57.27
66857;BME280;53766;50.280;19.160;2022-10-16T06:41:14;98854.34;;;17.55;57.33
66857;BME280;53766;50.280;19.160;2022-10-16T06:43:42;98855.22;;;17.55;57.32
66857;BME280;53766;50.280;19.160;2022-10-16T06:46:12;98862.16;;;17.56;57.43
66857;BME280;53766;50.280;19.160;2022-10-16T06:48:40;98862.16;;;17.56;57.38
66857;BME280;53766;50.280;19.160;2022-10-16T06:51:11;98870.97;;;17.57;57.40
66857;BME280;53766;50.280;19.160;2022-10-16T06:53:42;98863.84;;;17.57;57.34
66857;BME280;53766;50.280;19.160;2022-10-16T06:56:30;98876.13;;;17.58;57.36
66857;BME280;53766;50.280;19.160;2022-10-16T06:58:59;98871.44;;;17.60;57.29
66857;BME280;53766;50.280;19.160;2022-10-16T07:01:27;98867.09;;;17.59;57.24
66857;BME280;53766;50.280;19.160;2022-10-16T07:03:55;98867.75;;;17.61;57.22
66857;BME280;53766;50.280;19.160;2022-10-16T07:06:24;98869.41;;;17.62;57.19
66857;BME280;53766;50.280;19.160;2022-10-16T07:08:51;98864.72;;;17.64;57.03
66857;BME280;53766;50.280;19.160;2022-10-16T07:11:21;98872.53;;;17.66;57.07
66857;BME280;53766;50.280;19.160;2022-10-16T07:13:50;98869.03;;;17.65;57.10
66857;BME280;53766;50.280;19.160;2022-10-16T07:16:28;98873.34;;;17.66;57.01
66857;BME280;53766;50.280;19.160;2022-10-16T07:18:57;98875.81;;;17.68;56.93
66857;BME280;53766;50.280;19.160;2022-10-16T07:21:29;98877.47;;;17.69;57.00
66857;BME280;53766;50.280;19.160;2022-10-16T07:23:59;98872.97;;;17.69;57.02
66857;BME280;53766;50.280;19.160;2022-10-16T07:26:30;98871.31;;;17.68;57.10
66857;BME280;53766;50.280;19.160;2022-10-16T07:28:58;98867.63;;;17.69;56.94
66857;BME280;53766;50.280;19.160;2022-10-16T07:31:26;98875.63;;;17.69;57.14
66857;BME280;53766;50.280;19.160;2022-10-16T07:33:54;98880.94;;;17.69;57.07
66857;BME280;53766;50.280;19.160;2022-10-16T07:36:22;98885.28;;;17.71;57.06
66857;BME280;53766;50.280;19.160;2022-10-16T07:38:49;98888.59;;;17.73;57.05
66857;BME280;53766;50.280;19.160;2022-10-16T07:41:22;98884.72;;;17.75;56.83
66857;BME280;53766;50.280;19.160;2022-10-16T07:43:51;98891.50;;;17.78;57.00
66857;BME280;53766;50.280;19.160;2022-10-16T07:46:21;98885.78;;;17.81;57.02
66857;BME280;53766;50.280;19.160;2022-10-16T07:48:49;98884.81;;;17.82;57.10
66857;BME280;53766;50.280;19.160;2022-10-16T07:51:19;98887.91;;;17.85;56.96
66857;BME280;53766;50.280;19.160;2022-10-16T07:53:47;98888.75;;;17.86;57.02
66857;BME280;53766;50.280;19.160;2022-10-16T07:56:16;98887.09;;;17.85;56.74
66857;BME280;53766;50.280;19.160;2022-10-16T07:58:44;98886.28;;;17.84;56.76
66857;BME280;53766;50.280;19.160;2022-10-16T08:01:15;98892.63;;;17.83;56.79
66857;BME280;53766;50.280;19.160;2022-10-16T08:03:44;98905.09;;;17.83;56.73
66857;BME280;53766;50.280;19.160;2022-10-16T08:06:12;98894.44;;;17.83;56.66
66857;BME280;53766;50.280;19.160;2022-10-16T08:08:40;98905.09;;;17.83;56.69
66857;BME280;53766;50.280;19.160;2022-10-16T08:11:08;98897.09;;;17.83;56.84
66857;BME280;53766;50.280;19.160;2022-10-16T08:13:36;98908.78;;;17.82;56.66
66857;BME280;53766;50.280;19.160;2022-10-16T08:16:04;98898.94;;;17.82;56.70
66857;BME280;53766;50.280;19.160;2022-10-16T08:18:38;98901.44;;;17.84;56.81
66857;BME280;53766;50.280;19.160;2022-10-16T08:21:07;98903.06;;;17.85;56.75
66857;BME280;53766;50.280;19.160;2022-10-16T08:23:35;98906.38;;;17.87;56.55
66857;BME280;53766;50.280;19.160;2022-10-16T08:26:06;98905.75;;;17.85;56.53
66857;BME280;53766;50.280;19.160;2022-10-16T08:28:34;98911.72;;;17.87;56.73
66857;BME280;53766;50.280;19.160;2022-10-16T08:31:13;98905.38;;;17.88;56.49
66857;BME280;53766;50.280;19.160;2022-10-16T08:33:43;98904.34;;;17.89;56.45
66857;BME280;53766;50.280;19.160;2022-10-16T08:36:11;98907.84;;;17.89;56.25
66857;BME280;53766;50.280;19.160;2022-10-16T08:38:39;98912.16;;;17.91;56.18
66857;BME280;53766;50.280;19.160;2022-10-16T08:49:21;98919.59;;;17.95;55.89
66857;BME280;53766;50.280;19.160;2022-10-16T08:51:49;98911.59;;;17.95;55.77
66857;BME280;53766;50.280;19.160;2022-10-16T08:54:36;98922.25;;;17.95;55.77
66857;BME280;53766;50.280;19.160;2022-10-16T08:57:12;98923.88;;;17.96;55.69
66857;BME280;53766;50.280;19.160;2022-10-16T08:59:45;98923.88;;;17.96;55.56
66857;BME280;53766;50.280;19.160;2022-10-16T09:06:10;98916.75;;;17.97;55.68
66857;BME280;53766;50.280;19.160;2022-10-16T09:11:08;98917.75;;;17.96;55.45
66857;BME280;53766;50.280;19.160;2022-10-16T09:16:35;98919.19;;;17.98;55.30
66857;BME280;53766;50.280;19.160;2022-10-16T09:21:46;98929.03;;;17.98;55.34
66857;BME280;53766;50.280;19.160;2022-10-16T09:24:19;98923.53;;;17.99;55.53
66857;BME280;53766;50.280;19.160;2022-10-16T09:26:54;98919.19;;;17.98;55.18
66857;BME280;53766;50.280;19.160;2022-10-16T09:29:24;98926.19;;;17.99;55.14
66857;BME280;53766;50.280;19.160;2022-10-16T09:31:54;98933.16;;;18.00;55.36
66857;BME280;53766;50.280;19.160;2022-10-16T09:34:34;98935.81;;;18.00;55.29
66857;BME280;53766;50.280;19.160;2022-10-16T09:37:12;98942.19;;;17.99;55.17
66857;BME280;53766;50.280;19.160;2022-10-16T09:39:54;98942.19;;;17.99;55.15
66857;BME280;53766;50.280;19.160;2022-10-16T09:42:27;98949.16;;;18.00;55.25
66857;BME280;53766;50.280;19.160;2022-10-16T09:44:57;98936.84;;;17.99;55.24
66857;BME280;53766;50.280;19.160;2022-10-16T09:47:27;98937.66;;;18.00;55.20
66857;BME280;53766;50.280;19.160;2022-10-16T09:50:04;98949.16;;;18.00;55.34
66857;BME280;53766;50.280;19.160;2022-10-16T09:52:40;98946.47;;;18.00;55.12
66857;BME280;53766;50.280;19.160;2022-10-16T09:55:16;98945.47;;;18.01;54.93
66857;BME280;53766;50.280;19.160;2022-10-16T09:57:51;98950.81;;;18.01;55.06
66857;BME280;53766;50.280;19.160;2022-10-16T10:00:19;98952.44;;;18.02;55.13
66857;BME280;53766;50.280;19.160;2022-10-16T10:02:47;98940.78;;;18.03;55.02
66857;BME280;53766;50.280;19.160;2022-10-16T10:05:25;98952.44;;;18.02;55.19
66857;BME280;53766;50.280;19.160;2022-10-16T10:10:27;98947.94;;;18.03;55.16
66857;BME280;53766;50.280;19.160;2022-10-16T10:12:56;98943.47;;;18.03;55.00
66857;BME280;53766;50.280;19.160;2022-10-16T10:15:25;98954.13;;;18.03;55.10
66857;BME280;53766;50.280;19.160;2022-10-16T10:17:56;98951.47;;;18.03;55.04
66857;BME280;53766;50.280;19.160;2022-10-16T10:20:28;98946.94;;;18.04;55.07
66857;BME280;53766;50.280;19.160;2022-10-16T10:22:57;98945.09;;;18.04;54.97
66857;BME280;53766;50.280;19.160;2022-10-16T10:38:51;98962.13;;;18.03;55.38
66857;BME280;53766;50.280;19.160;2022-10-16T10:57:33;98953.38;;;18.09;56.80
66857;BME280;53766;50.280;19.160;2022-10-16T11:08:09;98937.38;;;18.09;57.22
66857;BME280;53766;50.280;19.160;2022-10-16T11:10:45;98948.03;;;18.09;56.79
66857;BME280;53766;50.280;19.160;2022-10-16T11:13:37;98937.38;;;18.09;56.59
66857;BME280;53766;50.280;19.160;2022-10-16T11:16:15;98946.38;;;18.08;56.60
66857;BME280;53766;50.280;19.160;2022-10-16T11:24:50;98941.50;;;18.12;56.83
66857;BME280;53766;50.280;19.160;2022-10-16T11:27:43;98940.66;;;18.12;56.94
66857;BME280;53766;50.280;19.160;2022-10-16T11:30:33;98952.97;;;18.13;56.55
66857;BME280;53766;50.280;19.160;2022-10-16T11:33:39;98957.50;;;18.12;56.55
66857;BME280;53766;50.280;19.160;2022-10-16T11:38:58;98952.97;;;18.13;56.95
66857;BME280;53766;50.280;19.160;2022-10-16T11:50:31;98942.13;;;18.14;57.25
66857;BME280;53766;50.280;19.160;2022-10-16T11:56:04;98945.63;;;18.15;56.70
66857;BME280;53766;50.280;19.160;2022-10-16T12:06:49;98953.44;;;18.16;56.44
66857;BME280;53766;50.280;19.160;2022-10-16T12:09:32;98955.88;;;18.18;56.60
66857;BME280;53766;50.280;19.160;2022-10-16T12:12:00;98952.22;;;18.19;56.39
66857;BME280;53766;50.280;19.160;2022-10-16T12:17:03;98962.25;;;18.17;56.08
66857;BME280;53766;50.280;19.160;2022-10-16T12:19:33;98961.22;;;18.18;56.09
66857;BME280;53766;50.280;19.160;2022-10-16T12:22:02;98962.88;;;18.19;56.07
66857;BME280;53766;50.280;19.160;2022-10-16T12:24:36;98958.38;;;18.19;56.24
66857;BME280;53766;50.280;19.160;2022-10-16T12:27:30;98963.72;;;18.19;55.97
66857;BME280;53766;50.280;19.160;2022-10-16T12:30:04;98971.53;;;18.21;55.58
66857;BME280;53766;50.280;19.160;2022-10-16T12:32:37;98970.50;;;18.22;55.59
66857;BME280;53766;50.280;19.160;2022-10-16T12:35:19;98971.53;;;18.21;55.72
66857;BME280;53766;50.280;19.160;2022-10-16T12:37:47;98980.34;;;18.21;55.68
66857;BME280;53766;50.280;19.160;2022-10-16T12:42:52;98980.16;;;18.23;55.69
66857;BME280;53766;50.280;19.160;2022-10-16T12:47:55;98965.16;;;18.22;55.52
66857;BME280;53766;50.280;19.160;2022-10-16T12:52:55;98974.81;;;18.23;55.43
66857;BME280;53766;50.280;19.160;2022-10-16T12:55:23;98975.81;;;18.22;55.85
66857;BME280;53766;50.280;19.160;2022-10-16T12:58:09;98979.31;;;18.22;55.51
66857;BME280;53766;50.280;19.160;2022-10-16T13:06:39;98979.31;;;18.22;55.51
66857;BME280;53766;50.280;19.160;2022-10-16T13:09:26;98983.81;;;18.22;55.41
66857;BME280;53766;50.280;19.160;2022-10-16T13:12:22;98983.19;;;18.20;55.56
66857;BME280;53766;50.280;19.160;2022-10-16T13:18:19;98986.66;;;18.20;55.71
66857;BME280;53766;50.280;19.160;2022-10-16T13:24:01;98971.53;;;18.21;55.84
66857;BME280;53766;50.280;19.160;2022-10-16T13:29:32;98988.53;;;18.20;56.00
66857;BME280;53766;50.280;19.160;2022-10-16T13:32:07;98987.69;;;18.19;55.90
66857;BME280;53766;50.280;19.160;2022-10-16T13:34:46;98985.50;;;18.23;56.10
66857;BME280;53766;50.280;19.160;2022-10-16T13:37:18;98991.47;;;18.25;56.34
66857;BME280;53766;50.280;19.160;2022-10-16T13:39:47;98995.78;;;18.26;56.41
66857;BME280;53766;50.280;19.160;2022-10-16T13:42:29;98991.06;;;18.28;56.07
66857;BME280;53766;50.280;19.160;2022-10-16T13:44:57;98992.09;;;18.27;56.19
66857;BME280;53766;50.280;19.160;2022-10-16T13:47:27;98991.72;;;18.30;55.94
66857;BME280;53766;50.280;19.160;2022-10-16T13:50:00;98988.41;;;18.28;55.85
66857;BME280;53766;50.280;19.160;2022-10-16T13:52:29;98986.38;;;18.30;56.02
66857;BME280;53766;50.280;19.160;2022-10-16T13:54:56;98979.38;;;18.29;56.07
66857;BME280;53766;50.280;19.160;2022-10-16T13:57:28;98971.19;;;18.30;56.06
66857;BME280;53766;50.280;19.160;2022-10-16T13:59:56;98970.38;;;18.30;56.11
66857;BME280;53766;50.280;19.160;2022-10-16T14:02:34;98977.91;;;18.26;56.16
66857;BME280;53766;50.280;19.160;2022-10-16T14:05:04;98980.22;;;18.29;56.02
66857;BME280;53766;50.280;19.160;2022-10-16T14:07:36;98960.09;;;18.27;57.59
66857;BME280;53766;50.280;19.160;2022-10-16T14:10:07;98963.38;;;18.29;56.65
66857;BME280;53766;50.280;19.160;2022-10-16T14:12:45;98967.72;;;18.30;56.62
66857;BME280;53766;50.280;19.160;2022-10-16T14:15:18;98973.69;;;18.32;56.91
66857;BME280;53766;50.280;19.160;2022-10-16T14:17:50;98985.00;;;18.34;57.20
66857;BME280;53766;50.280;19.160;2022-10-16T14:20:19;98992.16;;;18.34;57.21
66857;BME280;53766;50.280;19.160;2022-10-16T14:23:01;98982.31;;;18.34;57.33
66857;BME280;53766;50.280;19.160;2022-10-16T14:25:31;98994.63;;;18.35;57.44
66857;BME280;53766;50.280;19.160;2022-10-16T14:28:16;98998.31;;;18.34;57.56
66857;BME280;53766;50.280;19.160;2022-10-16T14:36:11;99018.84;;;18.34;57.52
66857;BME280;53766;50.280;19.160;2022-10-16T14:38:48;99019.66;;;18.34;57.61
66857;BME280;53766;50.280;19.160;2022-10-16T14:41:20;99025.63;;;18.36;57.56
66857;BME280;53766;50.280;19.160;2022-10-16T14:43:50;99021.28;;;18.35;57.74
66857;BME280;53766;50.280;19.160;2022-10-16T14:46:21;99025.22;;;18.39;57.82
66857;BME280;53766;50.280;19.160;2022-10-16T14:49:00;99032.47;;;18.45;61.10
66857;BME280;53766;50.280;19.160;2022-10-16T14:51:28;99031.72;;;18.52;62.24
66857;BME280;53766;50.280;19.160;2022-10-16T14:53:57;99024.41;;;18.60;63.48
66857;BME280;53766;50.280;19.160;2022-10-16T14:56:32;99020.94;;;18.60;63.03
66857;BME280;53766;50.280;19.160;2022-10-16T14:59:02;99023.22;;;18.63;62.95
66857;BME280;53766;50.280;19.160;2022-10-16T15:01:30;99021.19;;;18.65;62.69
66857;BME280;53766;50.280;19.160;2022-10-16T15:03:58;99015.84;;;18.65;62.13
66857;BME280;53766;50.280;19.160;2022-10-16T15:06:26;99018.31;;;18.66;61.84
66857;BME280;53766;50.280;19.160;2022-10-16T15:08:55;99037.19;;;18.65;61.16
66857;BME280;53766;50.280;19.160;2022-10-16T15:11:23;99034.69;;;18.63;61.42
66857;BME280;53766;50.280;19.160;2022-10-16T15:13:51;99028.09;;;18.59;61.00
66857;BME280;53766;50.280;19.160;2022-10-16T15:16:18;99027.28;;;18.59;60.57
66857;BME280;53766;50.280;19.160;2022-10-16T15:18:46;99029.94;;;18.59;60.22
66857;BME280;53766;50.280;19.160;2022-10-16T15:21:34;99036.31;;;18.58;59.97